Time;durP1;ratioP1;P1;durP2;ratioP2;P2;SDS_P1;SDS_P2;PMS_P1;PMS_P2;Temp;Humidity;BMP_temperature;BMP_pressure;BME280_temperature;BME280_humidity;BME280_pressure;Samples;Min_cycle;Max_cycle;Signal;HPM_P1;HPM_P2
2022/06/14 00:03:06;;;;;;;8.05;2.25;;;;;;;11.50;70.24;101242.52;1771123;80;21877;-89
2022/06/14 00:05:51;;;;;;;6.28;2.30;;;;;;;11.50;70.33;101241.20;1755389;80;21100;-89
2022/06/14 00:08:36;;;;;;;10.50;2.50;;;;;;;11.45;70.39;101236.69;1770115;80;21624;-88
2022/06/14 00:11:30;;;;;;;7.92;2.45;;;;;;;11.43;70.46;101237.08;1760718;81;21067;-88
2022/06/14 00:14:08;;;;;;;7.85;2.52;;;;;;;11.40;70.50;101232.13;1760268;81;22788;-87
2022/06/14 00:16:35;;;;;;;9.43;2.50;;;;;;;11.39;70.62;101238.23;1767145;80;21570;-88
2022/06/14 00:19:05;;;;;;;7.47;2.20;;;;;;;11.36;70.66;101236.42;1762026;80;21038;-89
2022/06/14 00:21:50;;;;;;;8.13;2.60;;;;;;;11.34;70.74;101233.28;1737645;82;21101;-90
2022/06/14 00:24:18;;;;;;;5.85;2.42;;;;;;;11.32;70.80;101235.86;1739423;81;21148;-85
2022/06/14 00:26:44;;;;;;;8.45;3.05;;;;;;;11.29;70.87;101237.08;1760835;81;22554;-86
2022/06/14 00:29:11;;;;;;;7.08;2.27;;;;;;;11.26;70.91;101239.61;1765854;81;21006;-88
2022/06/14 00:31:38;;;;;;;5.95;2.35;;;;;;;11.22;70.89;101236.02;1766529;81;21050;-89
2022/06/14 00:34:04;;;;;;;8.45;2.25;;;;;;;11.19;71.02;101235.03;1764548;81;21003;-90
2022/06/14 00:36:33;;;;;;;6.72;2.62;;;;;;;11.17;71.09;101242.88;1760100;80;21043;-87
2022/06/14 00:39:05;;;;;;;10.63;2.50;;;;;;;11.16;71.23;101238.88;1759825;81;21679;-87
2022/06/14 00:41:45;;;;;;;5.78;2.25;;;;;;;11.14;71.27;101243.21;1740491;81;21074;-90
2022/06/14 00:44:16;;;;;;;5.28;2.22;;;;;;;11.12;71.39;101234.37;1768739;80;21151;-88
2022/06/14 00:47:11;;;;;;;5.10;2.10;;;;;;;11.11;71.49;101243.10;1760372;80;21282;-85
2022/06/14 00:49:50;;;;;;;5.47;1.87;;;;;;;11.08;71.60;101244.80;1767482;81;21055;-85
2022/06/14 00:52:28;;;;;;;8.03;2.30;;;;;;;11.06;71.70;101242.55;1763967;80;21759;-85
2022/06/14 00:55:00;;;;;;;7.42;2.42;;;;;;;11.05;71.73;101242.49;1759452;81;21301;-87
2022/06/14 00:57:31;;;;;;;7.80;2.85;;;;;;;11.03;71.82;101235.86;1768253;81;21054;-87
2022/06/14 01:03:18;;;;;;;7.33;2.60;;;;;;;11.02;72.05;101234.08;1646779;86;21104;-86
2022/06/14 01:06:12;;;;;;;5.97;2.22;;;;;;;11.02;72.20;101235.41;1655755;85;22570;-87
2022/06/14 01:09:14;;;;;;;5.25;2.75;;;;;;;10.95;72.24;101222.88;1652733;85;21747;-86
2022/06/14 01:11:49;;;;;;;9.53;2.60;;;;;;;10.98;72.33;101230.89;1691999;84;21144;-87
2022/06/14 01:14:20;;;;;;;6.15;2.47;;;;;;;10.96;72.41;101223.37;1658368;84;21071;-85
2022/06/14 01:16:46;;;;;;;11.45;2.37;;;;;;;10.94;72.45;101222.83;1628286;86;21127;-86
2022/06/14 01:19:22;;;;;;;10.72;2.40;;;;;;;10.93;72.50;101219.73;1666851;84;22833;-87
2022/06/14 01:22:04;;;;;;;5.00;2.00;;;;;;;10.92;72.55;101225.84;1669892;85;21080;-86
2022/06/14 01:24:31;;;;;;;4.12;1.85;;;;;;;10.91;72.67;101224.07;1674160;84;21118;-86
2022/06/14 01:26:57;;;;;;;5.15;2.30;;;;;;;10.89;72.75;101223.59;1657304;84;21065;-88
2022/06/14 01:29:30;;;;;;;7.40;1.90;;;;;;;10.89;72.78;101220.95;1665898;83;21101;-89
2022/06/14 01:31:59;;;;;;;10.50;2.05;;;;;;;10.88;72.89;101224.42;1669994;85;21796;-88
2022/06/14 01:34:27;;;;;;;9.35;2.60;;;;;;;10.88;72.99;101227.48;1647443;85;21166;-87
2022/06/14 01:37:13;;;;;;;4.92;1.82;;;;;;;10.88;73.01;101220.90;1670152;85;21700;-87
2022/06/14 01:39:44;;;;;;;8.53;1.98;;;;;;;10.87;73.07;101220.45;1721712;79;21053;-87
2022/06/14 01:42:41;;;;;;;7.17;2.00;;;;;;;10.86;73.11;101222.16;1773820;80;21113;-88
2022/06/14 01:45:33;;;;;;;5.50;2.00;;;;;;;10.86;73.20;101226.11;1779844;80;21723;-88
2022/06/14 01:48:05;;;;;;;6.37;1.80;;;;;;;10.86;73.25;101223.48;1779939;80;21019;-86
2022/06/14 01:53:57;;;;;;;5.92;1.87;;;;;;;10.84;73.48;101227.80;1780534;79;21232;-88
2022/06/14 01:56:41;;;;;;;5.30;1.80;;;;;;;10.84;73.55;101223.86;1776697;80;21062;-88
2022/06/14 01:59:26;;;;;;;;;;;;;;;10.85;73.62;101232.67;1780277;80;21883;-87
2022/06/14 02:02:04;;;;;;;5.85;1.65;;;;;;;10.84;73.79;101228.23;1780748;80;20707;-87
2022/06/14 02:04:44;;;;;;;6.97;2.17;;;;;;;10.83;73.76;101226.44;1789571;79;21536;-88
2022/06/14 02:07:31;;;;;;;4.33;1.98;;;;;;;10.84;73.84;101229.55;1777458;79;21186;-89
2022/06/14 02:10:21;;;;;;;3.83;1.62;;;;;;;10.81;73.88;101223.78;1791026;79;21656;-88
2022/06/14 02:13:14;;;;;;;5.65;2.02;;;;;;;10.81;73.96;101222.86;1754855;80;21754;-85
2022/06/14 02:15:47;;;;;;;6.75;1.55;;;;;;;10.83;74.00;101230.38;1774604;80;21074;-88
2022/06/14 02:18:19;;;;;;;6.78;1.95;;;;;;;10.85;74.10;101230.04;1775296;80;21549;-88
2022/06/14 02:20:57;;;;;;;6.53;1.95;;;;;;;10.86;74.09;101231.81;1771042;80;21066;-87
2022/06/14 02:23:24;;;;;;;10.20;2.10;;;;;;;10.89;74.12;101229.28;1752110;80;21060;-86
2022/06/14 02:25:58;;;;;;;6.33;2.12;;;;;;;10.91;74.17;101226.70;1774935;80;21722;-86
2022/06/14 02:28:36;;;;;;;6.58;1.98;;;;;;;10.92;74.19;101230.67;1773975;80;21086;-89
2022/06/14 02:31:16;;;;;;;4.42;1.70;;;;;;;10.96;74.31;101229.95;1774939;80;21062;-89
2022/06/14 02:33:55;;;;;;;8.33;2.00;;;;;;;11.00;74.31;101231.83;1681413;82;21654;-88
2022/06/14 02:36:31;;;;;;;3.67;1.45;;;;;;;11.05;74.33;101234.16;1725381;82;21058;-88
2022/06/14 02:39:18;;;;;;;5.05;1.90;;;;;;;11.10;74.41;101230.36;1720387;82;21763;-88
2022/06/14 02:42:01;;;;;;;7.37;1.80;;;;;;;11.18;74.38;101231.91;1713689;82;21757;-86
2022/06/14 02:44:48;;;;;;;5.72;1.92;;;;;;;11.20;74.28;101235.05;1715331;82;21136;-88
2022/06/14 02:47:28;;;;;;;8.23;1.80;;;;;;;11.26;74.27;101238.30;1714979;82;21099;-87
2022/06/14 02:50:00;;;;;;;8.38;2.20;;;;;;;11.31;74.15;101238.02;1713931;82;21116;-85
2022/06/14 02:52:47;;;;;;;4.22;1.85;;;;;;;11.36;74.18;101236.42;1709984;83;21636;-86
2022/06/14 02:55:33;;;;;;;10.68;2.20;;;;;;;11.45;74.25;101233.17;1683809;83;21091;-89
2022/06/14 02:58:28;;;;;;;3.42;1.55;;;;;;;11.56;74.18;101232.14;1709873;82;21102;-88
2022/06/14 03:01:24;;;;;;;5.42;1.85;;;;;;;11.67;74.04;101235.57;1714242;83;21255;-86
2022/06/14 03:04:17;;;;;;;7.58;1.75;;;;;;;11.78;73.90;101237.59;1694252;83;21076;-87
2022/06/14 03:07:13;;;;;;;4.87;2.00;;;;;;;11.89;73.80;101233.95;1710749;83;21113;-86
2022/06/14 03:09:58;;;;;;;6.17;2.10;;;;;;;12.02;73.70;101240.05;1718585;81;21092;-85
2022/06/14 03:13:09;;;;;;;6.05;1.92;;;;;;;12.08;73.64;101229.66;1768580;81;21055;-86
2022/06/14 03:16:15;;;;;;;7.58;2.20;;;;;;;12.36;73.61;101245.78;1752737;81;21110;-84
2022/06/14 03:19:29;;;;;;;10.15;2.37;;;;;;;12.67;73.56;101243.92;1737901;82;21055;-84
2022/06/14 03:22:16;;;;;;;7.90;2.45;;;;;;;13.02;73.27;101243.41;1734993;80;21769;-85
2022/06/14 03:25:03;;;;;;;10.98;2.50;;;;;;;13.31;72.82;101243.22;1642695;87;21672;-86
2022/06/14 03:27:37;;;;;;;9.03;2.30;;;;;;;13.46;72.14;101242.66;1643297;87;21145;-86
2022/06/14 03:30:26;;;;;;;6.67;2.08;;;;;;;13.55;71.97;101241.94;1640463;87;21756;-85
2022/06/14 03:33:10;;;;;;;8.28;2.02;;;;;;;14.11;72.71;101238.17;1640933;85;21106;-86
2022/06/14 03:35:41;;;;;;;;;;;;;;;14.31;70.90;101239.87;1649520;85;21722;-87
2022/06/14 03:38:13;;;;;;;5.28;2.10;;;;;;;14.20;70.11;101240.11;1655523;85;20869;-87
2022/06/14 03:40:42;;;;;;;9.55;1.77;;;;;;;14.05;69.84;101235.87;1637572;86;21098;-86
2022/06/14 03:43:09;;;;;;;7.00;2.12;;;;;;;13.89;69.72;101242.20;1624103;86;21110;-87
2022/06/14 03:46:15;;;;;;;8.73;2.17;;;;;;;13.78;69.71;101238.02;1632212;86;21114;-87
2022/06/14 03:48:45;;;;;;;8.13;2.35;;;;;;;13.75;69.79;101240.59;1605389;86;21855;-86
2022/06/14 03:51:47;;;;;;;6.28;2.22;;;;;;;13.73;69.70;101245.40;1634325;86;21142;-85
2022/06/14 03:54:48;;;;;;;10.98;2.52;;;;;;;13.76;69.78;101242.83;1640929;85;21771;-87
2022/06/14 03:57:32;;;;;;;7.12;2.10;;;;;;;13.81;69.63;101250.40;1643251;86;21112;-87
2022/06/14 04:00:19;;;;;;;5.58;1.82;;;;;;;13.85;69.57;101243.42;1640040;85;21167;-86
2022/06/14 04:03:11;;;;;;;7.00;1.90;;;;;;;14.31;70.51;101247.81;1724865;81;22907;-85
2022/06/14 04:06:03;;;;;;;2.85;1.40;;;;;;;16.36;72.93;101243.09;1729879;81;21027;-90
2022/06/14 04:09:15;;;;;;;5.87;1.90;;;;;;;19.43;71.64;101230.67;1731580;82;21070;-87
2022/06/14 04:11:48;;;;;;;5.92;1.80;;;;;;;22.23;68.09;101228.50;1732502;80;21081;-85
2022/06/14 04:14:41;;;;;;;4.60;1.60;;;;;;;24.76;63.81;101224.69;1732430;82;21064;-88
2022/06/14 04:17:17;;;;;;;7.37;1.70;;;;;;;25.87;59.80;101221.06;1729511;82;21794;-85
2022/06/14 04:20:21;;;;;;;4.60;1.47;;;;;;;24.49;55.48;101226.23;1741109;81;21767;-86
2022/06/14 04:22:51;;;;;;;;;;;;;;;22.78;54.75;101228.05;1725689;81;21457;-87
2022/06/14 04:25:42;;;;;;;5.20;1.65;;;;;;;20.08;55.53;101232.15;1729648;82;21182;-86
2022/06/14 04:28:23;;;;;;;4.62;1.80;;;;;;;20.08;55.53;101232.15;1685860;82;21541;-90
2022/06/14 04:31:28;;;;;;;3.60;1.75;;;;;;;19.22;55.92;101232.10;1735319;81;21847;-86
2022/06/14 04:34:32;;;;;;;5.08;1.90;;;;;;;18.37;56.58;101211.27;1727411;81;21080;-86
2022/06/14 04:37:13;;;;;;;5.97;1.93;;;;;;;18.98;60.17;101233.92;1732065;82;21056;-91
2022/06/14 04:39:54;;;;;;;7.40;1.47;;;;;;;25.35;57.78;101197.03;1725825;81;21634;-90
2022/06/14 04:42:28;;;;;;;8.10;2.08;;;;;;;25.35;57.78;101197.03;1725060;81;21244;-90
2022/06/14 04:45:00;;;;;;;6.08;1.95;;;;;;;27.95;54.78;101226.44;1759553;81;22410;-88
2022/06/14 04:47:44;;;;;;;4.10;1.62;;;;;;;29.90;52.32;101222.00;1735916;82;21107;-88
2022/06/14 04:50:25;;;;;;;5.40;1.90;;;;;;;31.53;50.05;101227.23;1740933;81;21050;-90
2022/06/14 04:52:59;;;;;;;4.20;1.60;;;;;;;33.09;47.73;101223.59;1730140;81;21145;-90
2022/06/14 04:55:45;;;;;;;5.95;2.12;;;;;;;34.37;45.05;101221.75;1735562;82;21037;-90
2022/06/14 04:58:40;;;;;;;8.43;2.10;;;;;;;34.92;42.60;101228.02;1733357;82;22607;-92
2022/06/14 05:01:15;;;;;;;4.55;1.62;;;;;;;35.43;41.10;101216.23;1738221;82;21074;-88
2022/06/14 05:03:55;;;;;;;7.03;2.50;;;;;;;35.97;39.84;101221.89;1736476;81;21068;-87
2022/06/14 05:06:30;;;;;;;6.45;1.92;;;;;;;36.49;37.60;101226.19;1730087;81;21080;-89
2022/06/14 05:09:04;;;;;;;8.55;2.15;;;;;;;36.11;35.93;101227.19;1745230;81;21072;-89
2022/06/14 05:11:48;;;;;;;4.53;1.98;;;;;;;35.53;36.00;101226.00;1729218;81;21770;-90
2022/06/14 05:14:20;;;;;;;3.67;1.62;;;;;;;36.06;34.80;101222.57;1726181;81;21106;-86
2022/06/14 05:17:12;;;;;;;11.28;1.98;;;;;;;35.63;33.72;101228.47;1730253;81;21087;-86
2022/06/14 05:20:18;;;;;;;6.60;2.50;;;;;;;35.12;33.62;101231.20;1731690;82;21159;-90
2022/06/14 05:23:02;;;;;;;5.05;1.75;;;;;;;35.67;33.26;101233.23;1728215;81;21080;-89
2022/06/14 05:25:47;;;;;;;;;;;;;;;;;;;;;
2022/06/14 05:28:10;;;;;;;6.90;2.52;;;;;;;35.46;31.43;101242.02;1706539;82;21078;-86
2022/06/14 05:31:00;;;;;;;9.83;2.20;;;;;;;35.07;31.00;101239.74;1716863;81;21070;-87
2022/06/14 05:33:56;;;;;;;9.00;2.90;;;;;;;34.62;31.19;101240.08;1713162;80;21577;-85
2022/06/14 05:36:32;;;;;;;4.62;2.20;;;;;;;34.55;29.72;101241.97;1643060;84;21191;-85
2022/06/14 05:39:18;;;;;;;11.12;2.50;;;;;;;34.52;30.94;101235.33;1645547;83;22407;-88
2022/06/14 05:41:51;;;;;;;6.15;2.83;;;;;;;35.09;29.98;101244.61;1630729;85;21182;-85
2022/06/14 05:44:31;;;;;;;6.22;2.12;;;;;;;32.99;28.83;101241.52;1661897;85;21111;-85
2022/06/14 05:47:03;;;;;;;8.33;2.60;;;;;;;30.88;29.99;101246.07;1678050;84;21190;-86
2022/06/14 05:49:36;;;;;;;5.75;2.42;;;;;;;29.39;30.80;101259.59;1654752;85;21208;-89
2022/06/14 05:52:14;;;;;;;9.28;2.33;;;;;;;27.79;31.50;101255.41;1662468;84;21740;-88
2022/06/14 05:54:52;;;;;;;5.05;2.08;;;;;;;26.22;32.38;101264.94;1649917;84;21173;-88
2022/06/14 05:57:30;;;;;;;5.70;2.37;;;;;;;25.10;33.69;101264.18;1667364;84;21606;-88
2022/06/14 06:00:14;;;;;;;6.20;2.05;;;;;;;24.08;34.60;101263.97;1654594;84;21581;-84
2022/06/14 06:02:58;;;;;;;5.97;2.00;;;;;;;23.33;35.67;101265.55;1657490;84;21159;-88
2022/06/14 06:05:41;;;;;;;7.22;1.90;;;;;;;22.79;36.57;101265.19;1655001;84;21811;-86
2022/06/14 06:08:16;;;;;;;9.10;2.17;;;;;;;22.35;37.36;101269.47;1661533;83;21069;-89
2022/06/14 06:10:46;;;;;;;7.25;2.42;;;;;;;22.05;37.94;101268.98;1659373;84;21182;-86
2022/06/14 06:13:24;;;;;;;7.20;2.00;;;;;;;21.62;38.36;101270.89;1710471;80;21034;-90
2022/06/14 06:15:58;;;;;;;9.18;2.00;;;;;;;21.33;39.14;101273.44;1773711;80;21046;-90
2022/06/14 06:18:42;;;;;;;8.98;1.80;;;;;;;21.17;39.70;101266.01;1764746;80;21854;-89
2022/06/14 06:21:33;;;;;;;9.45;2.00;;;;;;;20.85;39.97;101268.55;1774013;80;21046;-85
2022/06/14 06:24:19;;;;;;;10.28;2.30;;;;;;;20.49;40.32;101281.31;1774845;80;21327;-88
2022/06/14 06:27:00;;;;;;;9.28;2.25;;;;;;;20.40;40.88;101280.03;1741150;80;39366;-88
2022/06/14 06:29:38;;;;;;;7.33;2.58;;;;;;;20.42;41.40;101284.05;1775864;80;22499;-89
2022/06/14 06:32:05;;;;;;;10.08;2.80;;;;;;;20.30;41.24;101280.55;1768785;80;21947;-85
2022/06/14 06:34:32;;;;;;;8.38;2.30;;;;;;;19.92;41.53;101257.63;1769793;80;21769;-87
2022/06/14 06:37:10;;;;;;;7.42;2.40;;;;;;;19.92;41.53;101257.63;1768746;80;21051;-85
2022/06/14 06:39:56;;;;;;;9.08;2.65;;;;;;;19.91;41.91;101279.89;1767047;80;21528;-88
2022/06/14 06:42:44;;;;;;;8.53;2.65;;;;;;;19.73;42.30;101285.34;1771472;80;21076;-85
2022/06/14 06:45:24;;;;;;;5.75;2.70;;;;;;;19.73;42.70;101263.98;1771404;80;22686;-85
2022/06/14 06:47:59;;;;;;;10.20;2.17;;;;;;;19.73;42.70;101263.98;1775468;80;21571;-88
2022/06/14 06:50:49;;;;;;;8.08;2.55;;;;;;;20.00;42.77;101295.88;1767584;80;21600;-85
2022/06/14 06:53:21;;;;;;;7.10;1.92;;;;;;;20.20;42.69;101296.23;1739638;80;21082;-88
2022/06/14 06:56:10;;;;;;;10.58;2.42;;;;;;;20.19;42.64;101284.63;1739565;80;21104;-85
2022/06/14 06:59:03;;;;;;;6.95;2.27;;;;;;;20.23;42.75;101296.19;1735680;82;21809;-85
2022/06/14 07:01:34;;;;;;;9.25;2.35;;;;;;;19.99;42.75;101297.25;1727106;81;21086;-86
2022/06/14 07:07:20;;;;;;;6.08;2.12;;;;;;;19.70;42.95;101295.54;1769230;80;21046;-89
2022/06/14 07:10:00;;;;;;;10.20;2.40;;;;;;;19.30;43.22;101286.79;1773632;80;21564;-89
2022/06/14 07:12:42;;;;;;;10.75;2.15;;;;;;;18.99;43.50;101286.83;1753752;80;21810;-85
2022/06/14 07:15:22;;;;;;;10.18;4.50;;;;;;;18.81;43.93;101287.30;1773232;80;21053;-89
2022/06/14 07:18:10;;;;;;;10.75;2.15;;;;;;;18.67;44.12;101286.81;1748411;80;21117;-85
2022/06/14 07:21:03;;;;;;;7.55;3.42;;;;;;;18.57;44.60;101288.14;1774528;80;21568;-88
2022/06/14 07:23:59;;;;;;;8.95;2.92;;;;;;;18.43;44.52;101286.81;1774916;80;21647;-85
2022/06/14 07:26:39;;;;;;;9.70;3.42;;;;;;;18.21;44.71;101292.53;1770394;79;21827;-85
2022/06/14 07:29:33;;;;;;;5.67;2.17;;;;;;;18.13;45.04;101280.98;1766699;80;21106;-88
2022/06/14 07:32:14;;;;;;;17.35;2.77;;;;;;;18.10;45.20;101288.95;1766904;80;21091;-88
2022/06/14 07:34:40;;;;;;;7.80;2.02;;;;;;;18.09;45.68;101283.62;1775504;80;21085;-85
2022/06/14 07:37:24;;;;;;;6.95;1.82;;;;;;;18.45;45.67;101289.03;1766112;80;21118;-88
2022/06/14 07:40:14;;;;;;;;;;;;;;;18.80;45.48;101288.59;1777982;80;21760;-86
2022/06/14 07:42:52;;;;;;;21.73;3.77;;;;;;;18.97;45.27;101296.16;1774232;80;20810;-88
2022/06/14 07:45:24;;;;;;;12.82;2.08;;;;;;;18.99;44.81;101296.16;1753455;80;21055;-86
2022/06/14 07:48:28;;;;;;;10.05;2.83;;;;;;;19.09;44.75;101304.62;1769866;80;21213;-85
2022/06/14 07:51:05;;;;;;;10.68;2.40;;;;;;;19.11;44.38;101294.83;1770746;80;21614;-89
2022/06/14 07:54:00;;;;;;;17.67;2.30;;;;;;;19.07;44.24;101303.73;1775443;80;21756;-89
2022/06/14 07:56:34;;;;;;;18.75;2.83;;;;;;;18.93;43.59;101299.73;1770303;80;21059;-84
2022/06/14 07:59:14;;;;;;;9.60;2.17;;;;;;;18.81;43.60;101297.96;1770443;80;21058;-86
2022/06/14 08:01:55;;;;;;;17.98;3.80;;;;;;;18.94;43.89;101289.52;1775133;80;21072;-87
2022/06/14 08:04:43;;;;;;;33.30;4.70;;;;;;;19.20;43.72;101298.81;1775145;80;21690;-88
2022/06/14 08:07:14;;;;;;;7.10;2.12;;;;;;;19.50;43.50;101288.95;1768997;80;22599;-88
2022/06/14 08:09:46;;;;;;;8.10;2.25;;;;;;;19.75;43.48;101295.12;1749590;80;21039;-84
2022/06/14 08:12:36;;;;;;;6.50;2.10;;;;;;;19.88;43.48;101302.63;1775233;79;21069;-85
2022/06/14 08:15:21;;;;;;;8.75;2.30;;;;;;;19.88;43.30;101301.75;1770379;80;21059;-85
2022/06/14 08:17:53;;;;;;;6.17;2.20;;;;;;;20.00;43.32;101304.34;1773841;80;21037;-85
2022/06/14 08:20:37;;;;;;;4.72;1.70;;;;;;;20.23;43.45;101304.20;1775278;80;21757;-88
2022/06/14 08:23:20;;;;;;;8.28;1.65;;;;;;;20.43;42.75;101302.75;1758505;80;21079;-87
2022/06/14 08:25:49;;;;;;;7.97;1.65;;;;;;;20.39;42.30;101304.56;1702216;84;21071;-87
2022/06/14 08:28:29;;;;;;;7.75;2.10;;;;;;;20.20;42.18;101315.82;1737797;82;21038;-88
2022/06/14 08:31:10;;;;;;;6.87;1.62;;;;;;;20.02;42.25;101321.26;1733278;81;21075;-88
2022/06/14 08:33:57;;;;;;;9.50;1.55;;;;;;;19.99;42.47;101314.61;1682910;82;22702;-85
2022/06/14 08:36:49;;;;;;;6.65;2.30;;;;;;;20.15;42.79;101316.74;1726713;82;21082;-88
2022/06/14 08:39:29;;;;;;;11.25;2.10;;;;;;;20.39;42.51;101318.39;1731654;82;21062;-88
2022/06/14 08:42:16;;;;;;;7.37;1.85;;;;;;;20.64;42.35;101319.13;1753880;80;21407;-88
2022/06/14 08:44:57;;;;;;;5.75;1.95;;;;;;;20.83;41.44;101313.17;1769136;80;21051;-85
2022/06/14 08:47:47;;;;;;;6.90;2.05;;;;;;;20.83;41.44;101313.17;1742634;81;22000;-88
2022/06/14 08:50:53;;;;;;;8.50;1.80;;;;;;;20.58;41.42;101316.47;1756973;80;21074;-89
2022/06/14 08:53:40;;;;;;;5.35;2.17;;;;;;;20.32;41.67;101326.88;1768277;80;21047;-85
2022/06/14 08:56:51;;;;;;;7.05;1.80;;;;;;;20.00;41.85;101324.39;1758692;81;21106;-89
2022/06/14 09:00:11;;;;;;;5.10;1.85;;;;;;;19.72;42.27;101327.17;1738640;81;21101;-88
2022/06/14 09:02:52;;;;;;;10.85;4.10;;;;;;;19.65;42.84;101330.72;1775831;80;21826;-86
2022/06/14 09:06:10;;;;;;;12.18;5.53;;;;;;;19.72;43.25;101327.17;1770468;80;21091;-89
2022/06/14 09:08:44;;;;;;;10.68;4.45;;;;;;;20.09;43.51;101320.80;1773923;80;21222;-85
2022/06/14 09:12:07;;;;;;;7.55;2.75;;;;;;;20.39;42.94;101325.95;1773662;80;21101;-88
2022/06/14 09:15:05;;;;;;;6.78;2.30;;;;;;;20.45;42.79;101321.47;1772023;80;21058;-85
2022/06/14 09:18:07;;;;;;;6.28;2.55;;;;;;;20.30;42.71;101326.46;1770142;80;22552;-85
2022/06/14 09:21:12;;;;;;;6.62;2.12;;;;;;;20.00;42.36;101320.38;1768166;80;21024;-88
2022/06/14 09:23:48;;;;;;;;;;;;;;;19.79;42.70;101320.91;1774519;80;21121;-86
2022/06/14 09:26:23;;;;;;;10.10;1.80;;;;;;;19.69;42.64;101328.92;1767026;80;20563;-88
2022/06/14 09:29:21;;;;;;;7.42;1.77;;;;;;;19.65;42.90;101329.84;1771204;80;20988;-85
2022/06/14 09:32:29;;;;;;;6.50;2.05;;;;;;;19.86;43.08;101335.15;1754499;80;21774;-85
2022/06/14 09:35:10;;;;;;;5.70;1.65;;;;;;;20.16;42.86;101337.24;1775627;80;21488;-88
2022/06/14 09:38:03;;;;;;;4.90;2.58;;;;;;;20.08;42.53;101349.73;1746037;80;21101;-85
2022/06/14 09:40:44;;;;;;;7.17;3.45;;;;;;;19.78;42.51;101344.95;1748600;80;21086;-85
2022/06/14 09:43:22;;;;;;;4.40;1.98;;;;;;;19.58;42.53;101340.55;1731200;82;21086;-85
2022/06/14 09:46:00;;;;;;;5.47;2.42;;;;;;;19.54;42.73;101353.47;1775188;80;21724;-85
2022/06/14 09:49:11;;;;;;;6.00;1.55;;;;;;;19.66;42.88;101350.32;1768309;79;21153;-85
2022/06/14 09:51:58;;;;;;;4.35;1.65;;;;;;;19.82;42.59;101348.08;1774905;80;21050;-85
2022/06/14 09:55:20;;;;;;;5.75;1.82;;;;;;;20.02;42.68;101343.09;1772052;80;21511;-88
2022/06/14 09:58:18;;;;;;;4.65;2.08;;;;;;;20.37;42.62;101339.78;1758041;80;21082;-88
2022/06/14 10:01:08;;;;;;;5.05;2.65;;;;;;;20.83;42.08;101331.90;1771437;80;21755;-84
2022/06/14 10:04:01;;;;;;;7.03;2.40;;;;;;;21.08;41.43;101336.61;1774777;80;21077;-85
2022/06/14 10:06:48;;;;;;;7.87;2.30;;;;;;;21.09;41.07;101353.09;1765766;80;21145;-86
2022/06/14 10:09:26;;;;;;;3.08;1.52;;;;;;;21.07;40.90;101356.69;1758807;80;21024;-86
2022/06/14 10:12:25;;;;;;;4.10;1.42;;;;;;;21.01;40.58;101341.58;1780563;79;21043;-89
2022/06/14 10:15:04;;;;;;;8.10;2.47;;;;;;;20.81;40.36;101334.16;1773890;79;21715;-88
2022/06/14 10:18:06;;;;;;;5.12;1.75;;;;;;;20.31;40.19;101334.91;1725943;82;21092;-89
2022/06/14 10:20:53;;;;;;;2.45;1.35;;;;;;;20.31;40.19;101334.91;1771162;80;21066;-89
2022/06/14 10:23:54;;;;;;;6.72;2.15;;;;;;;20.62;40.78;101320.05;1717121;81;21480;-89
2022/06/14 10:30:08;;;;;;;5.90;1.57;;;;;;;21.09;39.90;101346.86;1721872;82;21956;-88
2022/06/14 10:33:12;;;;;;;3.42;1.22;;;;;;;20.93;39.01;101345.66;1706266;82;21105;-84
2022/06/14 10:36:00;;;;;;;4.85;1.45;;;;;;;20.84;39.25;101348.86;1677310;83;21141;-88
2022/06/14 10:38:44;;;;;;;6.40;1.30;;;;;;;21.09;39.46;101333.02;1709105;82;21133;-88
2022/06/14 10:41:40;;;;;;;4.35;2.17;;;;;;;21.09;39.46;101333.02;1687228;83;21082;-84
2022/06/14 10:44:34;;;;;;;3.67;1.40;;;;;;;21.13;39.25;101325.42;1617904;87;21823;-85
2022/06/14 10:47:13;;;;;;;7.53;3.12;;;;;;;20.95;39.01;101345.66;1648638;85;21074;-87
2022/06/14 10:50:01;;;;;;;2.42;1.50;;;;;;;20.28;39.63;101333.14;1669798;84;21149;-87
2022/06/14 10:52:57;;;;;;;2.92;1.32;;;;;;;20.28;39.63;101333.14;1653374;85;21097;-85
2022/06/14 10:55:35;;;;;;;3.37;1.27;;;;;;;20.50;40.15;101341.93;1651340;85;21555;-88
2022/06/14 10:58:41;;;;;;;2.95;1.32;;;;;;;21.01;39.97;101325.52;1653964;84;21766;-88
2022/06/14 11:01:28;;;;;;;8.48;2.75;;;;;;;21.26;38.72;101333.31;1655414;84;21204;-88
2022/06/14 11:04:06;;;;;;;4.92;2.05;;;;;;;21.26;38.72;101333.31;1671776;84;21086;-85
2022/06/14 11:07:02;;;;;;;5.28;2.47;;;;;;;20.68;38.65;101355.64;1659459;84;21268;-84
2022/06/14 11:10:11;;;;;;;4.72;1.85;;;;;;;20.68;38.65;101355.64;1666042;85;21107;-84
2022/06/14 11:12:54;;;;;;;3.85;1.50;;;;;;;20.29;39.09;101353.66;1662779;84;21084;-85
2022/06/14 11:15:29;;;;;;;4.20;1.42;;;;;;;20.50;39.42;101351.75;1635135;87;21181;-85
2022/06/14 11:18:28;;;;;;;5.47;1.15;;;;;;;20.82;39.18;101349.33;1655821;85;21525;-85
2022/06/14 11:21:24;;;;;;;3.10;1.50;;;;;;;21.10;39.14;101344.63;1658702;85;21098;-86
2022/06/14 11:24:04;;;;;;;4.78;1.47;;;;;;;21.16;38.77;101345.44;1634903;87;21078;-86
2022/06/14 11:26:42;;;;;;;3.87;1.45;;;;;;;21.15;39.25;101339.67;1639681;87;22616;-85
2022/06/14 11:29:39;;;;;;;4.95;2.90;;;;;;;21.12;39.33;101328.98;1629052;87;21048;-86
2022/06/14 11:32:29;;;;;;;4.60;1.92;;;;;;;21.12;39.33;101328.98;1684535;82;21653;-88
2022/06/14 11:35:17;;;;;;;4.72;1.47;;;;;;;21.39;39.37;101359.06;1729959;82;21066;-85
2022/06/14 11:38:26;;;;;;;4.92;2.60;;;;;;;21.58;39.34;101361.12;1724027;81;21068;-85
2022/06/14 11:41:01;;;;;;;4.25;1.70;;;;;;;21.57;38.70;101366.06;1720516;81;22996;-85
2022/06/14 11:43:39;;;;;;;8.73;1.82;;;;;;;21.57;38.96;101366.06;1722570;81;21024;-85
2022/06/14 11:46:35;;;;;;;5.65;1.92;;;;;;;21.82;38.69;101368.46;1707110;83;21095;-86
2022/06/14 11:49:09;;;;;;;3.67;1.67;;;;;;;22.03;38.68;101371.33;1720159;82;21094;-85
2022/06/14 11:51:46;;;;;;;4.05;1.47;;;;;;;21.98;38.32;101360.67;1736111;81;21079;-86
2022/06/14 11:54:55;;;;;;;7.22;1.87;;;;;;;21.99;38.26;101370.48;1730273;81;21304;-86
2022/06/14 11:57:30;;;;;;;4.33;1.20;;;;;;;21.99;38.34;101364.23;1697070;84;21162;-85
2022/06/14 12:00:22;;;;;;;7.40;2.58;;;;;;;21.83;38.51;101348.35;1728905;81;21721;-85
2022/06/14 12:03:12;;;;;;;7.37;2.87;;;;;;;21.87;38.44;101367.97;1712629;82;21573;-89
2022/06/14 12:05:44;;;;;;;9.85;2.50;;;;;;;21.54;38.22;101388.39;1730927;81;21048;-88
2022/06/14 12:08:31;;;;;;;6.95;2.00;;;;;;;21.16;38.32;101378.91;1725133;82;21748;-88
2022/06/14 12:11:09;;;;;;;5.85;2.12;;;;;;;20.82;38.35;101382.31;1736561;82;21096;-88
2022/06/14 12:13:46;;;;;;;5.92;1.40;;;;;;;20.39;38.92;101382.55;1732915;81;21570;-86
2022/06/14 12:16:39;;;;;;;3.15;1.40;;;;;;;20.33;39.76;101378.12;1755412;79;21516;-86
2022/06/14 12:19:12;;;;;;;7.47;4.83;;;;;;;20.51;39.89;101380.25;1747724;81;21057;-85
2022/06/14 12:21:59;;;;;;;13.28;2.55;;;;;;;20.78;39.91;101372.08;1751759;81;22580;-86
2022/06/14 12:27:18;;;;;;;3.20;1.50;;;;;;;21.76;39.38;101374.78;1746081;81;21073;-85
2022/06/14 12:29:44;;;;;;;6.33;2.72;;;;;;;21.76;39.38;101374.78;1750213;81;21104;-87
2022/06/14 12:32:36;;;;;;;10.70;2.92;;;;;;;21.46;39.13;101384.91;1753417;80;21113;-88
2022/06/14 12:35:19;;;;;;;7.20;2.30;;;;;;;20.73;39.78;101381.92;1746616;81;21876;-89
2022/06/14 12:38:06;;;;;;;10.78;2.72;;;;;;;20.73;39.78;101381.92;1750954;81;21089;-88
2022/06/14 12:41:01;;;;;;;8.23;1.70;;;;;;;20.42;40.21;101378.54;1719985;82;21014;-88
2022/06/14 12:43:49;;;;;;;8.85;1.75;;;;;;;20.09;40.94;101386.27;1742943;81;21030;-86
2022/06/14 12:46:19;;;;;;;2.92;1.37;;;;;;;20.01;40.98;101380.96;1726400;82;21067;-88
2022/06/14 12:49:19;;;;;;;3.37;1.60;;;;;;;19.98;41.09;101376.95;1733445;82;21762;-87
2022/06/14 12:52:15;;;;;;;7.33;2.00;;;;;;;19.93;41.11;101391.68;1723835;81;21037;-85
2022/06/14 12:55:04;;;;;;;5.75;1.80;;;;;;;19.78;40.94;101392.61;1733220;81;21087;-85
2022/06/14 12:57:53;;;;;;;6.05;1.70;;;;;;;19.60;41.27;101392.16;1724140;82;21280;-85
2022/06/14 13:00:34;;;;;;;4.03;1.50;;;;;;;19.59;41.57;101389.03;1718067;81;21088;-87
2022/06/14 13:03:21;;;;;;;5.15;1.40;;;;;;;19.77;41.50;101395.28;1705012;83;21959;-89